sensor_id;sensor_type;location;lat;lon;timestamp;pressure;altitude;pressure_sealevel;temperature;humidity
51099;BME280;37146;48.210;16.234;2023-02-11T00:00:18;100710.03;;;-3.49;92.22
51099;BME280;37146;48.210;16.234;2023-02-11T00:02:44;100707.75;;;-3.38;92.36
51099;BME280;37146;48.210;16.234;2023-02-11T00:05:09;100714.88;;;-3.34;92.40
51099;BME280;37146;48.210;16.234;2023-02-11T00:07:34;100710.72;;;-3.27;92.56
51099;BME280;37146;48.210;16.234;2023-02-11T00:10:00;100708.88;;;-3.30;92.72
51099;BME280;37146;48.210;16.234;2023-02-11T00:12:28;100712.38;;;-3.31;92.16
51099;BME280;37146;48.210;16.234;2023-02-11T00:14:54;100703.75;;;-3.27;92.12
51099;BME280;37146;48.210;16.234;2023-02-11T00:17:19;100703.63;;;-3.31;91.77
51099;BME280;37146;48.210;16.234;2023-02-11T00:19:47;100705.50;;;-3.27;91.96
51099;BME280;37146;48.210;16.234;2023-02-11T00:22:13;100704.53;;;-3.31;91.61
51099;BME280;37146;48.210;16.234;2023-02-11T00:24:38;100715.97;;;-3.27;91.91
51099;BME280;37146;48.210;16.234;2023-02-11T00:27:03;100712.88;;;-3.41;92.13
51099;BME280;37146;48.210;16.234;2023-02-11T00:29:28;100710.13;;;-3.46;92.45
51099;BME280;37146;48.210;16.234;2023-02-11T00:31:54;100702.34;;;-3.44;92.21
51099;BME280;37146;48.210;16.234;2023-02-11T00:34:19;100705.94;;;-3.40;92.47
51099;BME280;37146;48.210;16.234;2023-02-11T00:36:44;100701.50;;;-3.43;92.76
51099;BME280;37146;48.210;16.234;2023-02-11T00:39:09;100694.53;;;-3.43;92.35
51099;BME280;37146;48.210;16.234;2023-02-11T00:41:35;100698.06;;;-3.68;91.94
51099;BME280;37146;48.210;16.234;2023-02-11T00:44:01;100692.72;;;-3.71;93.29
51099;BME280;37146;48.210;16.234;2023-02-11T00:46:26;100692.34;;;-3.56;93.28
51099;BME280;37146;48.210;16.234;2023-02-11T00:48:51;100687.91;;;-3.59;93.56
51099;BME280;37146;48.210;16.234;2023-02-11T00:51:19;100690.50;;;-3.60;93.07
51099;BME280;37146;48.210;16.234;2023-02-11T00:53:44;100692.44;;;-3.80;93.59
51099;BME280;37146;48.210;16.234;2023-02-11T00:56:09;100688.44;;;-3.69;93.54
51099;BME280;37146;48.210;16.234;2023-02-11T00:58:35;100686.81;;;-3.91;93.98
51099;BME280;37146;48.210;16.234;2023-02-11T01:01:00;100692.31;;;-3.83;94.64
51099;BME280;37146;48.210;16.234;2023-02-11T01:03:25;100693.94;;;-3.61;93.79
51099;BME280;37146;48.210;16.234;2023-02-11T01:05:51;100694.63;;;-3.67;94.28
51099;BME280;37146;48.210;16.234;2023-02-11T01:08:16;100686.25;;;-3.82;93.75
51099;BME280;37146;48.210;16.234;2023-02-11T01:10:42;100681.78;;;-3.86;94.99
51099;BME280;37146;48.210;16.234;2023-02-11T01:13:08;100685.44;;;-3.81;94.43
51099;BME280;37146;48.210;16.234;2023-02-11T01:15:33;100678.00;;;-3.95;95.28
51099;BME280;37146;48.210;16.234;2023-02-11T01:17:58;100674.56;;;-3.94;94.24
51099;BME280;37146;48.210;16.234;2023-02-11T01:20:24;100679.09;;;-3.88;94.67
51099;BME280;37146;48.210;16.234;2023-02-11T01:22:50;100681.44;;;-3.96;95.38
51099;BME280;37146;48.210;16.234;2023-02-11T01:25:15;100673.56;;;-3.97;95.60
51099;BME280;37146;48.210;16.234;2023-02-11T01:27:40;100663.16;;;-3.96;96.15
51099;BME280;37146;48.210;16.234;2023-02-11T01:30:06;100660.16;;;-4.08;96.47
51099;BME280;37146;48.210;16.234;2023-02-11T01:32:32;100654.63;;;-3.90;96.26
51099;BME280;37146;48.210;16.234;2023-02-11T01:34:57;100664.00;;;-3.97;95.84
51099;BME280;37146;48.210;16.234;2023-02-11T01:37:23;100666.09;;;-3.86;95.81
51099;BME280;37146;48.210;16.234;2023-02-11T01:39:48;100666.97;;;-3.86;95.71
51099;BME280;37146;48.210;16.234;2023-02-11T01:42:20;100654.06;;;-3.81;95.57
51099;BME280;37146;48.210;16.234;2023-02-11T01:44:48;100656.63;;;-3.55;95.42
51099;BME280;37146;48.210;16.234;2023-02-11T01:47:13;100650.22;;;-3.65;94.67
51099;BME280;37146;48.210;16.234;2023-02-11T01:49:40;100649.34;;;-3.66;94.67
51099;BME280;37146;48.210;16.234;2023-02-11T01:54:32;100646.06;;;-3.59;95.25
51099;BME280;37146;48.210;16.234;2023-02-11T01:57:19;100636.56;;;-3.57;94.43
51099;BME280;37146;48.210;16.234;2023-02-11T02:02:17;100639.44;;;-3.47;93.61
51099;BME280;37146;48.210;16.234;2023-02-11T02:04:49;100628.88;;;-3.50;94.25
51099;BME280;37146;48.210;16.234;2023-02-11T02:07:18;100638.72;;;-3.43;94.31
51099;BME280;37146;48.210;16.234;2023-02-11T02:09:48;100635.19;;;-3.44;94.29
51099;BME280;37146;48.210;16.234;2023-02-11T02:12:16;100624.94;;;-3.37;93.42
51099;BME280;37146;48.210;16.234;2023-02-11T02:14:42;100628.53;;;-3.34;93.63
51099;BME280;37146;48.210;16.234;2023-02-11T02:17:12;100624.25;;;-3.32;93.40
51099;BME280;37146;48.210;16.234;2023-02-11T02:27:35;100609.25;;;-3.07;92.67
51099;BME280;37146;48.210;16.234;2023-02-11T02:40:09;100583.63;;;-2.88;93.52
51099;BME280;37146;48.210;16.234;2023-02-11T02:42:36;100579.97;;;-2.93;93.08
51099;BME280;37146;48.210;16.234;2023-02-11T02:45:03;100576.63;;;-2.89;92.58
51099;BME280;37146;48.210;16.234;2023-02-11T02:47:29;100585.22;;;-2.93;92.13
51099;BME280;37146;48.210;16.234;2023-02-11T02:49:54;100581.59;;;-2.99;93.33
51099;BME280;37146;48.210;16.234;2023-02-11T02:52:32;100567.63;;;-2.34;92.73
51099;BME280;37146;48.210;16.234;2023-02-11T03:02:47;100577.53;;;-1.85;88.88
51099;BME280;37146;48.210;16.234;2023-02-11T03:05:21;100580.66;;;-1.65;87.67
51099;BME280;37146;48.210;16.234;2023-02-11T03:08:32;100576.72;;;-1.46;86.09
51099;BME280;37146;48.210;16.234;2023-02-11T03:10:44;100563.53;;;-1.47;86.02
51099;BME280;37146;48.210;16.234;2023-02-11T03:13:10;100567.91;;;-1.48;86.19
51099;BME280;37146;48.210;16.234;2023-02-11T03:15:37;100559.66;;;-1.65;86.59
51099;BME280;37146;48.210;16.234;2023-02-11T03:18:05;100568.03;;;-1.42;85.58
51099;BME280;37146;48.210;16.234;2023-02-11T03:20:32;100557.16;;;-1.59;86.29
51099;BME280;37146;48.210;16.234;2023-02-11T03:23:02;100552.75;;;-1.61;86.68
51099;BME280;37146;48.210;16.234;2023-02-11T03:25:29;100558.91;;;-1.59;86.71
51099;BME280;37146;48.210;16.234;2023-02-11T03:30:31;100541.31;;;-1.63;87.09
51099;BME280;37146;48.210;16.234;2023-02-11T03:35:26;100542.41;;;-1.55;86.14
51099;BME280;37146;48.210;16.234;2023-02-11T03:40:21;100528.91;;;-1.31;84.31
51099;BME280;37146;48.210;16.234;2023-02-11T03:42:50;100531.63;;;-1.26;83.58
51099;BME280;37146;48.210;16.234;2023-02-11T03:45:18;100524.53;;;-1.30;84.12
51099;BME280;37146;48.210;16.234;2023-02-11T03:47:45;100515.59;;;-1.40;84.32
51099;BME280;37146;48.210;16.234;2023-02-11T03:50:13;100512.84;;;-1.03;82.57
51099;BME280;37146;48.210;16.234;2023-02-11T03:52:39;100507.69;;;-0.97;82.65
51099;BME280;37146;48.210;16.234;2023-02-11T03:55:06;100499.56;;;-1.11;82.83
51099;BME280;37146;48.210;16.234;2023-02-11T03:57:32;100511.50;;;-1.26;83.74
51099;BME280;37146;48.210;16.234;2023-02-11T03:59:58;100502.25;;;-1.08;82.95
51099;BME280;37146;48.210;16.234;2023-02-11T04:02:26;100493.09;;;-1.27;84.51
51099;BME280;37146;48.210;16.234;2023-02-11T04:04:52;100486.69;;;-0.97;82.66
51099;BME280;37146;48.210;16.234;2023-02-11T04:07:17;100494.63;;;-0.94;82.94
51099;BME280;37146;48.210;16.234;2023-02-11T04:09:42;100496.66;;;-0.79;82.66
51099;BME280;37146;48.210;16.234;2023-02-11T04:12:08;100497.56;;;-0.79;81.57
51099;BME280;37146;48.210;16.234;2023-02-11T04:14:33;100493.16;;;-0.80;82.30
51099;BME280;37146;48.210;16.234;2023-02-11T04:16:58;100499.13;;;-0.87;82.26
51099;BME280;37146;48.210;16.234;2023-02-11T04:19:23;100494.72;;;-0.88;82.37
51099;BME280;37146;48.210;16.234;2023-02-11T04:21:49;100481.66;;;-0.86;82.38
51099;BME280;37146;48.210;16.234;2023-02-11T04:24:14;100484.44;;;-0.75;81.64
51099;BME280;37146;48.210;16.234;2023-02-11T04:26:39;100487.84;;;-0.81;82.32
51099;BME280;37146;48.210;16.234;2023-02-11T04:29:04;100498.56;;;-0.70;81.44
51099;BME280;37146;48.210;16.234;2023-02-11T04:31:30;100491.31;;;-0.84;82.24
51099;BME280;37146;48.210;16.234;2023-02-11T04:33:55;100486.75;;;-0.94;83.00
51099;BME280;37146;48.210;16.234;2023-02-11T04:36:20;100483.28;;;-0.93;82.43
51099;BME280;37146;48.210;16.234;2023-02-11T04:38:45;100481.75;;;-0.80;81.44
51099;BME280;37146;48.210;16.234;2023-02-11T04:41:11;100485.22;;;-0.83;81.64
51099;BME280;37146;48.210;16.234;2023-02-11T04:43:36;100485.03;;;-0.92;82.39
51099;BME280;37146;48.210;16.234;2023-02-11T04:46:01;100475.16;;;-0.55;80.64
51099;BME280;37146;48.210;16.234;2023-02-11T04:48:26;100475.00;;;-0.66;81.23
51099;BME280;37146;48.210;16.234;2023-02-11T04:50:52;100471.41;;;-0.71;81.69
51099;BME280;37146;48.210;16.234;2023-02-11T04:53:17;100468.75;;;-0.71;81.82
51099;BME280;37146;48.210;16.234;2023-02-11T04:55:42;100475.34;;;-0.45;80.81
51099;BME280;37146;48.210;16.234;2023-02-11T04:58:07;100483.25;;;-0.45;80.63
51099;BME280;37146;48.210;16.234;2023-02-11T05:00:32;100458.03;;;-0.31;79.62
51099;BME280;37146;48.210;16.234;2023-02-11T05:02:58;100458.09;;;-0.28;79.14
51099;BME280;37146;48.210;16.234;2023-02-11T05:05:23;100461.06;;;-0.08;77.49
51099;BME280;37146;48.210;16.234;2023-02-11T05:07:48;100459.16;;;-0.17;78.20
51099;BME280;37146;48.210;16.234;2023-02-11T05:10:13;100468.69;;;-0.22;78.66
51099;BME280;37146;48.210;16.234;2023-02-11T05:12:38;100460.16;;;-0.08;77.23
51099;BME280;37146;48.210;16.234;2023-02-11T05:15:04;100456.66;;;-0.07;77.25
51099;BME280;37146;48.210;16.234;2023-02-11T05:17:29;100465.53;;;-0.01;76.54
51099;BME280;37146;48.210;16.234;2023-02-11T05:19:54;100464.66;;;0.01;76.34
51099;BME280;37146;48.210;16.234;2023-02-11T05:22:20;100468.16;;;-0.01;76.76
51099;BME280;37146;48.210;16.234;2023-02-11T05:24:46;100465.47;;;-0.05;76.69
51099;BME280;37146;48.210;16.234;2023-02-11T05:27:11;100467.50;;;0.14;75.45
51099;BME280;37146;48.210;16.234;2023-02-11T05:29:36;100481.38;;;0.04;75.78
51099;BME280;37146;48.210;16.234;2023-02-11T05:32:01;100480.53;;;0.05;75.41
51099;BME280;37146;48.210;16.234;2023-02-11T05:34:27;100483.09;;;0.02;76.41
51099;BME280;37146;48.210;16.234;2023-02-11T05:36:52;100484.88;;;0.03;75.61
51099;BME280;37146;48.210;16.234;2023-02-11T05:39:17;100481.38;;;0.04;75.70
51099;BME280;37146;48.210;16.234;2023-02-11T05:41:42;100470.06;;;0.08;75.23
51099;BME280;37146;48.210;16.234;2023-02-11T05:44:08;100467.44;;;0.11;75.46
51099;BME280;37146;48.210;16.234;2023-02-11T05:46:34;100468.28;;;0.09;75.36
51099;BME280;37146;48.210;16.234;2023-02-11T05:48:59;100471.69;;;0.00;75.44
51099;BME280;37146;48.210;16.234;2023-02-11T05:51:24;100469.94;;;0.01;74.89
51099;BME280;37146;48.210;16.234;2023-02-11T05:53:49;100464.72;;;0.05;74.91
51099;BME280;37146;48.210;16.234;2023-02-11T05:56:15;100471.53;;;-0.09;76.00
51099;BME280;37146;48.210;16.234;2023-02-11T05:58:40;100472.38;;;-0.10;75.88
51099;BME280;37146;48.210;16.234;2023-02-11T06:01:05;100462.97;;;0.06;74.87
51099;BME280;37146;48.210;16.234;2023-02-11T06:03:31;100463.16;;;0.17;74.54
51099;BME280;37146;48.210;16.234;2023-02-11T06:05:56;100463.94;;;0.11;74.85
51099;BME280;37146;48.210;16.234;2023-02-11T06:08:21;100464.06;;;0.19;73.74
51099;BME280;37146;48.210;16.234;2023-02-11T06:10:46;100456.22;;;0.22;73.78
51099;BME280;37146;48.210;16.234;2023-02-11T06:13:11;100452.56;;;0.12;73.89
51099;BME280;37146;48.210;16.234;2023-02-11T06:15:37;100455.25;;;0.17;74.24
51099;BME280;37146;48.210;16.234;2023-02-11T06:18:02;100448.97;;;0.07;74.58
51099;BME280;37146;48.210;16.234;2023-02-11T06:20:27;100441.28;;;0.21;73.87
51099;BME280;37146;48.210;16.234;2023-02-11T06:22:53;100434.28;;;0.23;73.73
51099;BME280;37146;48.210;16.234;2023-02-11T06:25:19;100439.50;;;0.20;74.34
51099;BME280;37146;48.210;16.234;2023-02-11T06:27:44;100440.28;;;0.12;74.78
51099;BME280;37146;48.210;16.234;2023-02-11T06:30:09;100437.69;;;0.17;74.99
51099;BME280;37146;48.210;16.234;2023-02-11T06:32:35;100428.31;;;0.35;73.81
51099;BME280;37146;48.210;16.234;2023-02-11T06:35:00;100422.22;;;0.40;73.53
51099;BME280;37146;48.210;16.234;2023-02-11T06:37:25;100420.53;;;0.45;73.28
51099;BME280;37146;48.210;16.234;2023-02-11T06:39:50;100408.22;;;0.41;73.96
51099;BME280;37146;48.210;16.234;2023-02-11T06:42:16;100404.56;;;0.30;74.78
51099;BME280;37146;48.210;16.234;2023-02-11T06:44:41;100404.72;;;0.42;73.94
51099;BME280;37146;48.210;16.234;2023-02-11T06:47:06;100400.41;;;0.51;73.60
51099;BME280;37146;48.210;16.234;2023-02-11T06:49:31;100398.66;;;0.51;73.59
51099;BME280;37146;48.210;16.234;2023-02-11T06:51:57;100414.59;;;0.62;73.05
51099;BME280;37146;48.210;16.234;2023-02-11T06:54:22;100409.34;;;0.64;73.67
51099;BME280;37146;48.210;16.234;2023-02-11T06:56:47;100404.28;;;0.82;71.96
51099;BME280;37146;48.210;16.234;2023-02-11T06:59:16;100401.78;;;0.96;71.19
51099;BME280;37146;48.210;16.234;2023-02-11T07:01:41;100408.94;;;1.10;70.62
51099;BME280;37146;48.210;16.234;2023-02-11T07:04:07;100410.78;;;1.21;70.54
51099;BME280;37146;48.210;16.234;2023-02-11T07:06:32;100398.56;;;1.28;69.53
51099;BME280;37146;48.210;16.234;2023-02-11T07:08:58;100396.81;;;1.33;70.58
51099;BME280;37146;48.210;16.234;2023-02-11T07:11:24;100381.44;;;1.95;67.81
51099;BME280;37146;48.210;16.234;2023-02-11T07:13:50;100377.97;;;2.06;67.17
51099;BME280;37146;48.210;16.234;2023-02-11T07:16:16;100395.69;;;2.35;65.59
51099;BME280;37146;48.210;16.234;2023-02-11T07:18:42;100379.88;;;2.31;65.21
51099;BME280;37146;48.210;16.234;2023-02-11T07:21:09;100377.16;;;2.22;65.82
51099;BME280;37146;48.210;16.234;2023-02-11T07:23:35;100371.84;;;2.13;65.78
51099;BME280;37146;48.210;16.234;2023-02-11T07:26:01;100380.50;;;1.85;66.65
51099;BME280;37146;48.210;16.234;2023-02-11T07:28:27;100373.56;;;1.98;66.32
51099;BME280;37146;48.210;16.234;2023-02-11T07:30:52;100377.94;;;1.96;66.63
51099;BME280;37146;48.210;16.234;2023-02-11T07:33:17;100377.97;;;2.04;66.22
51099;BME280;37146;48.210;16.234;2023-02-11T07:35:42;100381.53;;;2.08;66.12
51099;BME280;37146;48.210;16.234;2023-02-11T07:38:08;100367.50;;;2.18;64.75
51099;BME280;37146;48.210;16.234;2023-02-11T07:40:33;100364.84;;;2.13;64.87
51099;BME280;37146;48.210;16.234;2023-02-11T07:42:59;100376.25;;;2.15;64.71
51099;BME280;37146;48.210;16.234;2023-02-11T07:45:24;100359.53;;;2.16;64.59
51099;BME280;37146;48.210;16.234;2023-02-11T07:47:49;100369.28;;;2.25;64.32
51099;BME280;37146;48.210;16.234;2023-02-11T07:50:15;100380.72;;;2.26;63.48
51099;BME280;37146;48.210;16.234;2023-02-11T07:52:41;100389.53;;;2.29;62.83
51099;BME280;37146;48.210;16.234;2023-02-11T07:55:06;100391.28;;;2.26;63.33
51099;BME280;37146;48.210;16.234;2023-02-11T07:57:31;100404.47;;;2.27;63.35
51099;BME280;37146;48.210;16.234;2023-02-11T07:59:56;100401.84;;;2.29;62.64
51099;BME280;37146;48.210;16.234;2023-02-11T08:02:22;100410.72;;;2.43;61.20
51099;BME280;37146;48.210;16.234;2023-02-11T08:04:47;100406.31;;;2.47;61.74
51099;BME280;37146;48.210;16.234;2023-02-11T08:07:17;100409.78;;;2.30;62.20
51099;BME280;37146;48.210;16.234;2023-02-11T08:09:42;100409.84;;;2.49;61.55
51099;BME280;37146;48.210;16.234;2023-02-11T08:12:08;100406.34;;;2.50;61.30
51099;BME280;37146;48.210;16.234;2023-02-11T08:14:33;100402.81;;;2.51;60.83
51099;BME280;37146;48.210;16.234;2023-02-11T08:16:58;100401.94;;;2.54;61.01
51099;BME280;37146;48.210;16.234;2023-02-11T08:19:23;100402.84;;;2.57;60.61
51099;BME280;37146;48.210;16.234;2023-02-11T08:21:49;100401.03;;;2.47;60.89
51099;BME280;37146;48.210;16.234;2023-02-11T08:24:14;100394.88;;;2.50;60.86
51099;BME280;37146;48.210;16.234;2023-02-11T08:26:39;100394.88;;;2.50;60.39
51099;BME280;37146;48.210;16.234;2023-02-11T08:29:09;100397.50;;;2.43;61.40
51099;BME280;37146;48.210;16.234;2023-02-11T08:31:35;100396.63;;;2.41;61.57
51099;BME280;37146;48.210;16.234;2023-02-11T08:34:01;100387.91;;;2.62;60.53
51099;BME280;37146;48.210;16.234;2023-02-11T08:36:28;100369.41;;;2.69;60.46
51099;BME280;37146;48.210;16.234;2023-02-11T08:38:54;100372.09;;;2.80;60.24
51099;BME280;37146;48.210;16.234;2023-02-11T08:41:19;100381.81;;;3.10;59.24
51099;BME280;37146;48.210;16.234;2023-02-11T08:43:45;100383.50;;;3.89;57.74
51099;BME280;37146;48.210;16.234;2023-02-11T08:46:11;100382.81;;;5.33;54.41
51099;BME280;37146;48.210;16.234;2023-02-11T08:48:37;100383.88;;;6.07;51.49
51099;BME280;37146;48.210;16.234;2023-02-11T08:51:08;100386.41;;;6.21;50.49
51099;BME280;37146;48.210;16.234;2023-02-11T08:53:35;100371.59;;;6.68;49.16
51099;BME280;37146;48.210;16.234;2023-02-11T08:56:00;100381.72;;;5.54;51.51
51099;BME280;37146;48.210;16.234;2023-02-11T08:58:26;100383.84;;;5.08;52.27
51099;BME280;37146;48.210;16.234;2023-02-11T09:00:51;100389.47;;;4.54;53.30
51099;BME280;37146;48.210;16.234;2023-02-11T09:03:16;100381.31;;;4.90;54.08
51099;BME280;37146;48.210;16.234;2023-02-11T09:05:42;100371.81;;;7.15;49.48
51099;BME280;37146;48.210;16.234;2023-02-11T09:08:08;100369.75;;;7.33;47.79
51099;BME280;37146;48.210;16.234;2023-02-11T09:10:33;100367.19;;;5.95;50.08
51099;BME280;37146;48.210;16.234;2023-02-11T09:12:59;100373.25;;;6.08;50.66
51099;BME280;37146;48.210;16.234;2023-02-11T09:15:24;100369.91;;;5.86;50.47
51099;BME280;37146;48.210;16.234;2023-02-11T09:17:49;100358.28;;;5.98;51.18
51099;BME280;37146;48.210;16.234;2023-02-11T09:20:14;100369.41;;;5.47;51.51
51099;BME280;37146;48.210;16.234;2023-02-11T09:22:40;100359.78;;;5.36;52.15
51099;BME280;37146;48.210;16.234;2023-02-11T09:25:05;100354.72;;;5.05;52.93
51099;BME280;37146;48.210;16.234;2023-02-11T09:27:30;100355.53;;;5.10;53.07
51099;BME280;37146;48.210;16.234;2023-02-11T09:29:55;100355.72;;;4.84;54.02
51099;BME280;37146;48.210;16.234;2023-02-11T09:32:21;100356.56;;;4.91;53.38
51099;BME280;37146;48.210;16.234;2023-02-11T09:34:46;100344.41;;;4.59;54.46
51099;BME280;37146;48.210;16.234;2023-02-11T09:37:11;100347.16;;;4.36;55.08
51099;BME280;37146;48.210;16.234;2023-02-11T09:39:36;100357.78;;;4.37;54.83
51099;BME280;37146;48.210;16.234;2023-02-11T09:44:28;100351.53;;;4.44;54.82
51099;BME280;37146;48.210;16.234;2023-02-11T09:47:38;100342.91;;;4.02;56.02
51099;BME280;37146;48.210;16.234;2023-02-11T09:49:48;100350.84;;;4.00;56.91
51099;BME280;37146;48.210;16.234;2023-02-11T09:54:59;100316.41;;;6.84;49.43
51099;BME280;37146;48.210;16.234;2023-02-11T09:57:30;100314.28;;;8.05;46.40
51099;BME280;37146;48.210;16.234;2023-02-11T09:59:56;100335.13;;;7.34;47.42
51099;BME280;37146;48.210;16.234;2023-02-11T10:02:43;100321.00;;;9.41;44.04
51099;BME280;37146;48.210;16.234;2023-02-11T10:07:48;100318.41;;;9.02;44.35
51099;BME280;37146;48.210;16.234;2023-02-11T10:10:27;100327.91;;;7.89;45.57
51099;BME280;37146;48.210;16.234;2023-02-11T10:18:00;100318.66;;;9.27;42.83
51099;BME280;37146;48.210;16.234;2023-02-11T10:20:38;100314.34;;;8.44;44.16
51099;BME280;37146;48.210;16.234;2023-02-11T10:23:24;100317.56;;;7.24;46.97
51099;BME280;37146;48.210;16.234;2023-02-11T10:25:53;100313.16;;;7.21;47.09
51099;BME280;37146;48.210;16.234;2023-02-11T10:28:26;100313.75;;;6.84;47.61
51099;BME280;37146;48.210;16.234;2023-02-11T10:31:00;100294.16;;;6.91;47.88
51099;BME280;37146;48.210;16.234;2023-02-11T10:35:51;100295.97;;;6.28;48.97
51099;BME280;37146;48.210;16.234;2023-02-11T10:38:16;100295.03;;;6.29;49.35
51099;BME280;37146;48.210;16.234;2023-02-11T10:40:42;100299.34;;;5.63;50.92
51099;BME280;37146;48.210;16.234;2023-02-11T10:43:11;100286.75;;;5.84;50.50
51099;BME280;37146;48.210;16.234;2023-02-11T10:45:45;100284.84;;;5.95;50.21
51099;BME280;37146;48.210;16.234;2023-02-11T10:53:32;100270.91;;;5.75;50.63
51099;BME280;37146;48.210;16.234;2023-02-11T10:55:59;100276.13;;;5.84;50.17
51099;BME280;37146;48.210;16.234;2023-02-11T10:58:27;100263.66;;;5.89;50.16
51099;BME280;37146;48.210;16.234;2023-02-11T11:00:54;100262.53;;;6.12;49.50
51099;BME280;37146;48.210;16.234;2023-02-11T11:03:20;100244.88;;;6.06;49.89
51099;BME280;37146;48.210;16.234;2023-02-11T11:05:59;100255.19;;;6.31;49.16
51099;BME280;37146;48.210;16.234;2023-02-11T11:11:10;100238.25;;;6.38;48.46
51099;BME280;37146;48.210;16.234;2023-02-11T11:13:37;100239.19;;;6.36;48.86
51099;BME280;37146;48.210;16.234;2023-02-11T11:18:36;100226.34;;;6.05;48.82
51099;BME280;37146;48.210;16.234;2023-02-11T11:21:03;100215.59;;;6.11;48.91
51099;BME280;37146;48.210;16.234;2023-02-11T11:23:30;100223.91;;;6.50;48.42
51099;BME280;37146;48.210;16.234;2023-02-11T11:26:00;100235.44;;;6.49;47.95
51099;BME280;37146;48.210;16.234;2023-02-11T11:28:26;100233.69;;;6.48;47.42
51099;BME280;37146;48.210;16.234;2023-02-11T11:30:52;100231.47;;;6.76;47.10
51099;BME280;37146;48.210;16.234;2023-02-11T11:33:24;100223.50;;;6.76;47.13
51099;BME280;37146;48.210;16.234;2023-02-11T11:36:00;100210.47;;;7.11;45.47
51099;BME280;37146;48.210;16.234;2023-02-11T11:38:26;100215.31;;;6.89;46.34
51099;BME280;37146;48.210;16.234;2023-02-11T11:43:36;100210.22;;;6.17;46.97
51099;BME280;37146;48.210;16.234;2023-02-11T11:46:01;100214.59;;;6.18;47.22
51099;BME280;37146;48.210;16.234;2023-02-11T11:48:30;100211.44;;;5.90;47.81
51099;BME280;37146;48.210;16.234;2023-02-11T11:50:59;100204.66;;;6.32;46.57
51099;BME280;37146;48.210;16.234;2023-02-11T11:56:04;100197.72;;;6.24;47.05
51099;BME280;37146;48.210;16.234;2023-02-11T11:58:31;100193.34;;;6.19;46.97
51099;BME280;37146;48.210;16.234;2023-02-11T12:01:06;100197.75;;;6.22;46.70
51099;BME280;37146;48.210;16.234;2023-02-11T12:08:33;100205.16;;;5.97;47.97
51099;BME280;37146;48.210;16.234;2023-02-11T12:11:15;100199.16;;;5.81;48.25
51099;BME280;37146;48.210;16.234;2023-02-11T12:14:05;100193.84;;;5.79;48.67
51099;BME280;37146;48.210;16.234;2023-02-11T12:22:11;100179.94;;;5.62;50.40
51099;BME280;37146;48.210;16.234;2023-02-11T12:27:41;100175.63;;;5.53;50.67
51099;BME280;37146;48.210;16.234;2023-02-11T12:43:07;100174.09;;;5.30;49.63
51099;BME280;37146;48.210;16.234;2023-02-11T12:50:56;100124.63;;;5.29;48.80
51099;BME280;37146;48.210;16.234;2023-02-11T12:56:16;100151.09;;;5.32;48.40
51099;BME280;37146;48.210;16.234;2023-02-11T12:58:43;100147.47;;;5.41;48.43
51099;BME280;37146;48.210;16.234;2023-02-11T13:01:18;100166.22;;;5.24;48.60
51099;BME280;37146;48.210;16.234;2023-02-11T13:03:56;100156.50;;;5.23;48.97
51099;BME280;37146;48.210;16.234;2023-02-11T13:06:35;100157.50;;;5.16;49.01
51099;BME280;37146;48.210;16.234;2023-02-11T13:09:02;100165.50;;;5.09;49.21
51099;BME280;37146;48.210;16.234;2023-02-11T13:11:29;100171.63;;;5.13;49.60
51099;BME280;37146;48.210;16.234;2023-02-11T13:14:01;100166.31;;;5.16;49.72
51099;BME280;37146;48.210;16.234;2023-02-11T13:16:44;100156.66;;;5.10;50.04
51099;BME280;37146;48.210;16.234;2023-02-11T13:21:45;100172.69;;;5.00;50.68
51099;BME280;37146;48.210;16.234;2023-02-11T13:31:55;100188.66;;;4.95;51.52
51099;BME280;37146;48.210;16.234;2023-02-11T13:37:30;100181.72;;;4.78;51.85
51099;BME280;37146;48.210;16.234;2023-02-11T13:39:59;100173.78;;;4.75;52.77
51099;BME280;37146;48.210;16.234;2023-02-11T13:42:24;100171.22;;;4.66;52.62
51099;BME280;37146;48.210;16.234;2023-02-11T13:44:50;100184.38;;;4.75;52.68
51099;BME280;37146;48.210;16.234;2023-02-11T13:47:33;100187.13;;;4.66;52.87
51099;BME280;37146;48.210;16.234;2023-02-11T13:50:02;100177.41;;;4.65;53.26
51099;BME280;37146;48.210;16.234;2023-02-11T13:52:30;100178.28;;;4.67;53.58
51099;BME280;37146;48.210;16.234;2023-02-11T13:54:58;100175.56;;;4.78;53.47
51099;BME280;37146;48.210;16.234;2023-02-11T13:59:56;100171.06;;;4.85;52.71
51099;BME280;37146;48.210;16.234;2023-02-11T14:02:27;100170.19;;;4.83;53.68
51099;BME280;37146;48.210;16.234;2023-02-11T14:08:19;100174.66;;;4.79;53.93
51099;BME280;37146;48.210;16.234;2023-02-11T14:16:16;100179.06;;;4.78;53.88
51099;BME280;37146;48.210;16.234;2023-02-11T14:23:42;100179.22;;;4.61;54.75
51099;BME280;37146;48.210;16.234;2023-02-11T14:28:49;100167.75;;;4.58;54.94
51099;BME280;37146;48.210;16.234;2023-02-11T14:31:37;100164.31;;;4.46;55.82
51099;BME280;37146;48.210;16.234;2023-02-11T14:41:42;100169.66;;;4.42;56.67
51099;BME280;37146;48.210;16.234;2023-02-11T14:44:16;100173.91;;;4.61;56.50
51099;BME280;37146;48.210;16.234;2023-02-11T14:46:48;100158.16;;;4.41;57.22
51099;BME280;37146;48.210;16.234;2023-02-11T14:49:34;100156.50;;;4.32;58.98
51099;BME280;37146;48.210;16.234;2023-02-11T14:54:44;100155.56;;;4.38;58.44
51099;BME280;37146;48.210;16.234;2023-02-11T14:57:13;100152.06;;;4.33;58.98
51099;BME280;37146;48.210;16.234;2023-02-11T14:59:39;100156.47;;;4.31;59.66
51099;BME280;37146;48.210;16.234;2023-02-11T15:02:24;100145.84;;;4.39;59.49
51099;BME280;37146;48.210;16.234;2023-02-11T15:04:52;100138.81;;;4.33;60.20
51099;BME280;37146;48.210;16.234;2023-02-11T15:07:18;100131.84;;;4.23;60.77
51099;BME280;37146;48.210;16.234;2023-02-11T15:09:47;100130.06;;;4.22;61.42
51099;BME280;37146;48.210;16.234;2023-02-11T15:12:24;100135.31;;;4.29;61.61